createdAt,value
2022-12-18T00:00:21.591Z,-4.44216
2022-12-18T00:05:23.255Z,-5.24619
2022-12-18T00:10:25.002Z,-5.09091
2022-12-18T00:15:26.593Z,-5.97844
2022-12-18T00:20:28.448Z,-5.86794
2022-12-18T00:25:30.154Z,-5.27445
2022-12-18T00:30:31.862Z,-5.84444
2022-12-18T00:35:33.491Z,-5.28302
2022-12-18T00:40:35.188Z,-5.34685
2022-12-18T00:45:36.969Z,-5.29668
2022-12-18T00:50:38.618Z,-5.69583
2022-12-18T00:55:40.426Z,-5.53388
2022-12-18T01:00:42.150Z,-5.66693
2022-12-18T01:05:43.859Z,-5.98892
2022-12-18T01:10:45.718Z,-5.47514
2022-12-18T01:15:47.852Z,-6.20516
2022-12-18T01:20:49.487Z,-5.81046
2022-12-18T01:25:51.217Z,-5.92763
2022-12-18T01:30:52.893Z,-5.57834
2022-12-18T01:35:54.554Z,-5.28652
2022-12-18T01:40:56.402Z,-5.1849
2022-12-18T01:45:58.092Z,-4.96008
2022-12-18T01:50:59.967Z,-5.26302
2022-12-18T01:56:01.717Z,-5.37829
2022-12-18T02:01:03.597Z,-5.32176
2022-12-18T02:06:05.381Z,-6.24486
2022-12-18T02:11:07.151Z,-6.59701
2022-12-18T02:16:08.890Z,-6.16007
2022-12-18T02:21:10.632Z,-5.51229
2022-12-18T02:26:12.384Z,-5.6428
2022-12-18T02:31:14.123Z,-6.1931
2022-12-18T02:36:15.829Z,-5.83999
2022-12-18T02:41:17.545Z,-5.40305
2022-12-18T02:46:19.203Z,-5.28969
2022-12-18T02:51:20.859Z,-5.26365
2022-12-18T02:56:22.528Z,-5.91271
2022-12-18T03:01:24.311Z,-5.92033
2022-12-18T03:06:26.042Z,-5.53325
2022-12-18T03:11:27.848Z,-5.25889
2022-12-18T03:16:29.529Z,-5.67011
2022-12-18T03:21:31.231Z,-5.78569
2022-12-18T03:26:32.912Z,-6.00321
2022-12-18T03:31:34.581Z,-5.39226
2022-12-18T03:36:36.173Z,-5.89429
2022-12-18T03:41:37.865Z,-5.42655
2022-12-18T03:46:39.454Z,-5.49768
2022-12-18T03:51:41.073Z,-5.83777
2022-12-18T03:56:42.762Z,-5.81268
2022-12-18T04:01:44.632Z,-6.37664
2022-12-18T04:06:46.334Z,-6.55573
2022-12-18T04:11:48.218Z,-6.67353
2022-12-18T04:16:49.847Z,-6.65766
2022-12-18T04:21:51.486Z,-5.85778
2022-12-18T04:26:53.205Z,-5.93144
2022-12-18T04:31:54.809Z,-6.55351
2022-12-18T04:36:56.469Z,-6.77896
2022-12-18T04:41:58.728Z,-6.56144
2022-12-18T04:47:00.407Z,-6.70592
2022-12-18T04:52:02.169Z,-6.81325
2022-12-18T04:57:03.818Z,-6.57827
2022-12-18T05:02:05.685Z,-6.66083
2022-12-18T05:07:07.433Z,-6.34552
2022-12-18T05:12:09.136Z,-5.87143
2022-12-18T05:17:11.452Z,-5.72441
2022-12-18T05:22:13.062Z,-5.71679
2022-12-18T05:27:14.722Z,-6.41696
2022-12-18T05:32:16.373Z,-6.54303
2022-12-18T05:37:17.975Z,-5.96447
2022-12-18T05:42:19.685Z,-5.95367
2022-12-18T05:47:21.332Z,-6.58177
2022-12-18T05:52:23.024Z,-6.54366
2022-12-18T05:57:24.766Z,-5.93176
2022-12-18T06:02:26.471Z,-6.25692
2022-12-18T06:07:28.335Z,-6.37791
2022-12-18T06:12:30.077Z,-6.37378
2022-12-18T06:17:31.730Z,-6.65544
2022-12-18T06:22:33.533Z,-6.41379
2022-12-18T06:27:35.183Z,-5.72727
2022-12-18T06:32:36.759Z,-5.95272
2022-12-18T06:37:38.403Z,-6.10609
2022-12-18T06:42:40.061Z,-6.45475
2022-12-18T06:47:41.819Z,-6.56652
2022-12-18T06:52:43.533Z,-6.49349
2022-12-18T06:57:45.237Z,-6.32424
2022-12-18T07:02:46.984Z,-5.83205
2022-12-18T07:07:48.681Z,-6.31662
2022-12-18T07:12:50.535Z,-5.48879
2022-12-18T07:17:52.191Z,-5.06932
2022-12-18T07:22:56.394Z,-5.12235
2022-12-18T07:27:58.419Z,-5.71647
2022-12-18T07:33:00.149Z,-4.82004
2022-12-18T07:38:01.878Z,-5.16585
2022-12-18T07:43:03.554Z,-5.0401
2022-12-18T07:48:05.196Z,-4.48662
2022-12-18T07:53:06.834Z,-5.75045
2022-12-18T07:58:08.528Z,-5.50848
2022-12-18T08:03:10.141Z,-4.92674
2022-12-18T08:08:11.771Z,-5.17506
2022-12-18T08:13:13.479Z,-4.69874
2022-12-18T08:18:15.101Z,-5.69297
2022-12-18T08:23:16.711Z,-5.36177
2022-12-18T08:28:18.430Z,-5.20332
2022-12-18T08:33:20.072Z,-5.51959
2022-12-18T08:38:21.672Z,-5.52817
2022-12-18T08:43:23.384Z,-5.83872
2022-12-18T08:48:25.000Z,-5.93494
2022-12-18T08:53:29.242Z,-6.10927
2022-12-18T08:58:35.381Z,-6.21882
2022-12-18T09:03:37.195Z,-5.39194
2022-12-18T09:08:39.630Z,-5.73711
2022-12-18T09:13:41.913Z,-6.04385
2022-12-18T09:18:44.065Z,-6.39093
2022-12-18T09:23:45.741Z,-6.00702
2022-12-18T09:28:47.432Z,-5.9108
2022-12-18T09:33:49.044Z,-7.00663
2022-12-18T09:38:50.674Z,-6.38426
2022-12-18T09:43:52.376Z,-6.17595
2022-12-18T09:48:53.965Z,-5.89334
2022-12-18T09:53:55.705Z,-5.95431
2022-12-18T09:58:57.405Z,-6.02131
2022-12-18T10:03:59.054Z,-5.44307
2022-12-18T10:09:00.702Z,-5.76315
2022-12-18T10:14:02.423Z,-5.66058
2022-12-18T10:19:04.028Z,-6.27121
2022-12-18T10:24:05.646Z,-5.60438
2022-12-18T10:29:07.373Z,-6.14451
2022-12-18T10:34:09.156Z,-5.75997
2022-12-18T10:39:10.784Z,-5.64661
2022-12-18T10:44:12.606Z,-6.12102
2022-12-18T10:49:14.559Z,-5.83332
2022-12-18T10:54:16.178Z,-6.06735
2022-12-18T10:59:18.082Z,-6.1134
2022-12-18T11:04:19.728Z,-6.2312
2022-12-18T11:09:21.345Z,-6.03592
2022-12-18T11:14:23.049Z,-5.51419
2022-12-18T11:19:24.811Z,-5.36209
2022-12-18T11:24:26.435Z,-6.65226
2022-12-18T11:29:28.101Z,-6.27026
2022-12-18T11:34:30.354Z,-6.90375
2022-12-18T11:39:32.304Z,-6.18548
2022-12-18T11:44:34.043Z,-5.98447
2022-12-18T11:49:35.622Z,-6.18516
2022-12-18T11:54:37.246Z,-6.58145
2022-12-18T11:59:38.996Z,-6.35981
2022-12-18T12:04:40.674Z,-6.18325
2022-12-18T12:09:42.311Z,-6.48142
2022-12-18T12:14:44.215Z,-6.38902
2022-12-18T12:19:45.869Z,-6.08323
2022-12-18T12:24:47.528Z,-5.88191
2022-12-18T12:29:49.209Z,-6.27153
2022-12-18T12:34:52.670Z,-5.97654
2022-12-18T12:39:57.791Z,-5.37257
2022-12-18T12:44:59.496Z,-5.78093
2022-12-18T12:50:01.176Z,-5.94415
2022-12-18T12:55:02.862Z,-6.13054
2022-12-18T13:00:04.675Z,-5.7279
2022-12-18T13:05:06.367Z,-5.72282
2022-12-18T13:10:08.150Z,-5.36717
2022-12-18T13:15:11.798Z,-6.1226
2022-12-18T13:20:14.091Z,-6.51889
2022-12-18T13:25:17.752Z,-5.41576
2022-12-18T13:30:20.105Z,-6.30678
2022-12-18T13:35:21.760Z,-5.96923
2022-12-18T13:40:24.559Z,-6.0899
2022-12-18T13:45:26.230Z,-6.47984
2022-12-18T13:50:35.447Z,-6.18294
2022-12-18T13:55:37.948Z,-6.86819
2022-12-18T14:00:39.711Z,-6.33599
2022-12-18T14:05:43.703Z,-6.80976
2022-12-18T14:10:49.137Z,-6.50365
2022-12-18T14:15:51.719Z,-5.85238
2022-12-18T14:20:53.461Z,-6.21406
2022-12-18T14:25:55.134Z,-6.16611
2022-12-18T14:30:56.908Z,-6.93646
2022-12-18T14:35:58.593Z,-6.78023
2022-12-18T14:41:00.235Z,-6.62146
2022-12-18T14:46:02.004Z,-6.12006
2022-12-18T14:51:04.045Z,-5.85587
2022-12-18T14:56:05.665Z,-6.13721
2022-12-18T15:01:07.384Z,-6.28773
2022-12-18T15:06:09.072Z,-6.20643
2022-12-18T15:11:13.228Z,-6.40045
2022-12-18T15:16:15.523Z,-5.94542
2022-12-18T15:21:17.186Z,-6.26899
2022-12-18T15:26:18.848Z,-6.71609
2022-12-18T15:31:20.591Z,-6.67163
2022-12-18T15:36:26.413Z,-6.14705
2022-12-18T15:41:28.728Z,-6.13531
2022-12-18T15:46:30.460Z,-6.02829
2022-12-18T15:51:32.097Z,-6.20104
2022-12-18T15:56:33.718Z,-5.67106
2022-12-18T16:01:40.892Z,-6.36203
2022-12-18T16:06:58.060Z,-6.67481
2022-12-18T16:12:15.489Z,-5.76759
2022-12-18T16:17:17.204Z,-5.76315
2022-12-18T16:22:18.990Z,-5.86222
2022-12-18T16:27:20.609Z,-5.8981
2022-12-18T16:32:22.199Z,-5.15442
2022-12-18T16:37:25.035Z,-4.81941
2022-12-18T16:42:26.692Z,-5.23666
2022-12-18T16:47:28.360Z,-4.64095
2022-12-18T16:52:29.970Z,-4.65968
2022-12-18T16:57:31.667Z,-4.75908
2022-12-18T17:02:33.723Z,-4.71621
2022-12-18T17:07:35.556Z,-5.04328
2022-12-18T17:12:38.421Z,-4.58189
2022-12-18T17:17:40.056Z,-4.94008
2022-12-18T17:22:41.634Z,-5.34558
2022-12-18T17:27:43.253Z,-4.82767
2022-12-18T17:32:45.024Z,-4.15161
2022-12-18T17:37:46.643Z,-4.14399
2022-12-18T17:42:48.294Z,-3.87884
2022-12-18T17:47:49.952Z,-5.31541
2022-12-18T17:52:51.568Z,-5.40401
2022-12-18T17:57:53.188Z,-5.35415
2022-12-18T18:02:55.113Z,-4.92007
2022-12-18T18:07:56.991Z,-5.23507
2022-12-18T18:12:58.576Z,-4.88324
2022-12-18T18:18:00.219Z,-5.20967
2022-12-18T18:23:01.907Z,-5.21094
2022-12-18T18:28:03.614Z,-5.68408
2022-12-18T18:33:10.343Z,-6.67353
2022-12-18T18:38:13.789Z,-5.54277
2022-12-18T18:43:15.462Z,-4.7902
2022-12-18T18:48:17.053Z,-4.66508
2022-12-18T18:53:18.734Z,-3.56415
2022-12-18T18:58:20.373Z,-3.37997
2022-12-18T19:03:22.256Z,-4.3269
2022-12-18T19:08:24.325Z,-4.49393
2022-12-18T19:13:25.910Z,-3.76007
2022-12-18T19:18:27.731Z,-3.35139
2022-12-18T19:23:29.749Z,-3.11957
2022-12-18T19:28:31.407Z,-3.11005
2022-12-18T19:33:42.852Z,-3.02082
2022-12-18T19:38:45.717Z,-3.02177
2022-12-18T19:43:47.628Z,-3.86931
2022-12-18T19:48:49.186Z,-3.10528
2022-12-18T19:53:55.103Z,-3.30185
2022-12-18T19:59:00.056Z,-4.29451
2022-12-18T20:04:01.944Z,-3.97378
2022-12-18T20:09:04.243Z,-4.39961
2022-12-18T20:14:05.854Z,-3.53747
2022-12-18T20:19:07.453Z,-3.61432
2022-12-18T20:24:09.455Z,-3.34059
2022-12-18T20:29:11.157Z,-3.57558
2022-12-18T20:34:12.807Z,-3.5851
2022-12-18T20:39:14.504Z,-3.40442
2022-12-18T20:44:22.644Z,-3.07734
2022-12-18T20:49:25.081Z,-2.89919
2022-12-18T20:54:26.760Z,-2.79948
2022-12-18T20:59:28.445Z,-2.99891
2022-12-18T21:04:30.044Z,-3.78548
2022-12-18T21:09:37.140Z,-3.28915
2022-12-18T21:14:40.111Z,-3.46983
2022-12-18T21:19:41.769Z,-3.87407
2022-12-18T21:24:43.711Z,-4.97247
2022-12-18T21:29:45.315Z,-4.56537
2022-12-18T21:34:48.397Z,-3.65496
2022-12-18T21:39:50.139Z,-3.79056
2022-12-18T21:44:51.828Z,-3.27676
2022-12-18T21:49:53.463Z,-3.05702
2022-12-18T21:54:55.235Z,-4.03253
2022-12-18T21:59:56.977Z,-3.71593
2022-12-18T22:04:58.633Z,-3.80485
2022-12-18T22:10:00.875Z,-3.66259
2022-12-18T22:15:03.713Z,-3.06273
2022-12-18T22:20:05.369Z,-3.15768
2022-12-18T22:25:07.024Z,-3.0694
2022-12-18T22:30:08.604Z,-3.14085
2022-12-18T22:35:15.566Z,-3.65211
2022-12-18T22:40:23.537Z,-3.54636
2022-12-18T22:45:25.973Z,-4.54187
2022-12-18T22:50:27.616Z,-4.80702
2022-12-18T22:55:29.230Z,-3.43204
2022-12-18T23:00:30.825Z,-4.22306
2022-12-18T23:05:32.458Z,-3.52223
2022-12-18T23:10:34.108Z,-3.55271
2022-12-18T23:15:35.884Z,-3.72864
2022-12-18T23:20:37.671Z,-4.80194
2022-12-18T23:25:40.200Z,-4.7867
2022-12-18T23:30:42.087Z,-4.48313
2022-12-18T23:35:43.687Z,-4.83656
2022-12-18T23:40:45.327Z,-4.31007
2022-12-18T23:45:55.405Z,-3.88201
2022-12-18T23:50:57.397Z,-3.70387
2022-12-18T23:55:59.008Z,-3.74642
